Time;durP1;ratioP1;P1;durP2;ratioP2;P2;SDS_P1;SDS_P2;PMS_P1;PMS_P2;Temp;Humidity;BMP_temperature;BMP_pressure;BME280_temperature;BME280_humidity;BME280_pressure;Samples;Min_cycle;Max_cycle;Signal;HPM_P1;HPM_P2
2023/08/06 00:01:51;;;;;;;9.70;6.30;;;;;;;29.66;63.50;100577.80;107175;1257;25446;-49
2023/08/06 00:04:19;;;;;;;9.60;6.10;;;;;;;29.64;63.25;100572.12;107049;1257;25347;-49
2023/08/06 00:06:46;;;;;;;9.60;6.20;;;;;;;29.62;63.15;100567.81;107092;1253;22541;-50
2023/08/06 00:09:13;;;;;;;8.40;5.80;;;;;;;29.60;63.03;100558.95;107042;1254;25359;-49
2023/08/06 00:11:41;;;;;;;11.20;7.10;;;;;;;29.58;63.10;100552.17;107047;1257;24410;-49
2023/08/06 00:14:08;;;;;;;9.20;6.40;;;;;;;29.60;62.97;100558.61;107100;1254;25447;-51
2023/08/06 00:16:35;;;;;;;8.30;6.30;;;;;;;29.43;63.37;100562.91;107053;1261;25414;-52
2023/08/06 00:19:02;;;;;;;6.50;5.60;;;;;;;29.32;63.58;100559.70;107240;1253;25360;-51
2023/08/06 00:21:29;;;;;;;8.50;6.60;;;;;;;29.30;63.70;100557.46;107166;1263;25359;-51
2023/08/06 00:23:56;;;;;;;9.60;6.20;;;;;;;29.29;63.64;100553.77;107129;1263;25359;-51
2023/08/06 00:26:23;;;;;;;10.10;6.70;;;;;;;29.29;63.72;100552.77;107144;1254;23257;-52
2023/08/06 00:28:50;;;;;;;6.70;6.00;;;;;;;29.27;63.60;100556.52;107059;1251;22509;-51
2023/08/06 00:31:17;;;;;;;6.90;6.10;;;;;;;29.27;63.76;100555.64;107232;1263;25375;-51
2023/08/06 00:33:44;;;;;;;8.70;6.40;;;;;;;29.26;63.89;100557.17;107247;1251;25375;-51
2023/08/06 00:36:11;;;;;;;9.00;6.20;;;;;;;29.26;63.80;100554.36;107121;1263;25359;-52
2023/08/06 00:38:38;;;;;;;10.60;6.40;;;;;;;29.25;63.83;100550.67;106905;1272;25347;-51
2023/08/06 00:41:04;;;;;;;9.60;6.20;;;;;;;29.24;64.07;100543.09;107241;1263;25584;-51
2023/08/06 00:43:32;;;;;;;9.00;6.50;;;;;;;29.24;64.08;100532.71;107110;1264;25346;-51
2023/08/06 00:45:59;;;;;;;8.90;6.60;;;;;;;29.25;64.13;100529.45;107216;1262;25404;-52
2023/08/06 00:48:26;;;;;;;12.80;6.60;;;;;;;29.32;63.95;100532.20;107016;1256;22525;-51
2023/08/06 00:50:53;;;;;;;8.30;5.80;;;;;;;29.47;63.46;100532.22;107145;1263;25347;-52
2023/08/06 00:53:20;;;;;;;8.10;6.50;;;;;;;29.49;63.43;100528.64;107129;1267;25482;-51
2023/08/06 00:55:47;;;;;;;10.10;6.20;;;;;;;29.50;63.39;100524.27;106936;1254;25335;-51
2023/08/06 00:58:14;;;;;;;9.10;6.30;;;;;;;29.50;63.32;100522.13;107072;1266;25488;-52
2023/08/06 01:00:42;;;;;;;10.20;6.40;;;;;;;29.50;63.37;100525.71;106816;1262;25381;-52
2023/08/06 01:03:09;;;;;;;8.20;6.10;;;;;;;29.49;63.41;100525.55;106921;1272;24218;-51
2023/08/06 01:05:36;;;;;;;10.00;6.50;;;;;;;29.50;63.27;100525.02;107025;1261;25354;-52
2023/08/06 01:08:16;;;;;;;10.10;6.80;;;;;;;29.50;63.38;100528.02;106960;1260;25366;-51
2023/08/06 01:10:49;;;;;;;10.90;6.00;;;;;;;29.50;63.34;100523.91;106925;1267;24137;-51
2023/08/06 01:13:49;;;;;;;6.80;6.20;;;;;;;29.49;63.14;100525.74;106938;1263;25424;-52
2023/08/06 01:16:17;;;;;;;10.90;6.90;;;;;;;29.49;63.26;100527.02;106780;1256;22537;-52
2023/08/06 01:18:49;;;;;;;8.70;6.30;;;;;;;29.49;63.34;100526.20;106645;1254;25527;-49
2023/08/06 01:21:17;;;;;;;12.80;6.90;;;;;;;29.49;63.30;100523.52;106559;1267;24211;-49
2023/08/06 01:23:45;;;;;;;10.90;6.30;;;;;;;29.49;63.56;100522.20;106577;1266;22552;-49
2023/08/06 01:26:24;;;;;;;11.50;6.80;;;;;;;29.48;63.48;100517.64;106869;1256;24304;-50
2023/08/06 01:29:08;;;;;;;12.20;6.50;;;;;;;29.49;63.58;100518.65;107054;1267;22638;-50
2023/08/06 01:31:36;;;;;;;11.80;7.50;;;;;;;29.49;63.55;100518.62;106732;1273;25488;-49
2023/08/06 01:34:05;;;;;;;12.30;7.80;;;;;;;29.49;63.87;100518.03;107275;1260;22527;-51
2023/08/06 01:36:32;;;;;;;15.70;8.10;;;;;;;29.49;63.84;100515.46;107141;1264;25369;-51
2023/08/06 01:38:59;;;;;;;12.20;7.30;;;;;;;29.48;63.97;100515.36;107140;1257;24241;-52
2023/08/06 01:41:26;;;;;;;11.60;6.70;;;;;;;29.49;64.22;100514.05;106926;1259;25344;-52
2023/08/06 01:43:53;;;;;;;10.50;6.80;;;;;;;29.47;64.34;100510.06;107055;1256;25408;-52
2023/08/06 01:46:20;;;;;;;11.80;6.70;;;;;;;29.46;64.52;100506.64;107214;1252;25331;-52
2023/08/06 01:48:47;;;;;;;10.90;8.00;;;;;;;29.45;64.59;100505.87;107023;1256;25369;-52
2023/08/06 01:51:14;;;;;;;14.90;7.70;;;;;;;29.44;64.80;100505.23;107073;1260;25378;-51
2023/08/06 01:53:42;;;;;;;11.30;7.00;;;;;;;29.43;64.88;100499.58;107070;1260;25337;-52
2023/08/06 01:56:09;;;;;;;11.20;7.00;;;;;;;29.44;64.86;100500.42;106978;1257;25481;-51
2023/08/06 01:58:36;;;;;;;11.60;7.00;;;;;;;29.44;64.95;100501.27;107151;1266;25439;-53
2023/08/06 02:01:02;;;;;;;10.20;6.80;;;;;;;29.45;65.01;100502.84;107120;1256;25294;-51
2023/08/06 02:03:29;;;;;;;9.30;6.80;;;;;;;29.45;65.10;100502.14;107040;1256;25485;-51
2023/08/06 02:05:57;;;;;;;9.00;6.60;;;;;;;29.45;65.20;100507.65;106737;1263;25369;-51
2023/08/06 02:08:24;;;;;;;11.00;7.60;;;;;;;29.45;65.33;100507.94;107139;1257;25368;-51
2023/08/06 02:10:50;;;;;;;11.50;7.70;;;;;;;29.45;65.51;100507.79;107143;1263;25433;-51
2023/08/06 02:13:17;;;;;;;10.30;8.00;;;;;;;29.47;65.41;100505.27;107005;1263;25372;-52
2023/08/06 02:15:47;;;;;;;12.50;7.30;;;;;;;29.48;65.46;100508.95;107144;1257;25350;-52
2023/08/06 02:18:15;;;;;;;14.20;7.40;;;;;;;29.48;65.50;100507.45;107232;1251;25402;-49
2023/08/06 02:20:42;;;;;;;11.50;7.40;;;;;;;29.49;65.54;100507.42;107085;1254;25359;-52
2023/08/06 02:23:09;;;;;;;8.20;7.10;;;;;;;29.49;65.57;100502.77;107189;1254;25418;-52
2023/08/06 02:25:37;;;;;;;8.90;7.50;;;;;;;29.49;65.61;100497.74;107160;1263;25386;-52
2023/08/06 02:28:04;;;;;;;9.50;7.80;;;;;;;29.49;65.93;100495.06;107182;1251;23279;-52
2023/08/06 02:30:31;;;;;;;11.70;7.00;;;;;;;29.48;65.93;100491.57;106953;1262;25338;-52
2023/08/06 02:32:59;;;;;;;9.40;7.80;;;;;;;29.48;66.08;100488.91;107114;1253;25414;-52
2023/08/06 02:35:27;;;;;;;12.10;8.30;;;;;;;29.47;66.22;100489.02;107135;1259;24385;-53
2023/08/06 02:37:54;;;;;;;8.30;7.50;;;;;;;29.44;66.24;100484.67;107075;1254;22646;-52
2023/08/06 02:40:22;;;;;;;11.00;7.40;;;;;;;29.43;66.54;100480.52;107211;1256;25357;-52
2023/08/06 02:42:49;;;;;;;8.30;7.20;;;;;;;29.42;66.56;100475.95;107225;1262;25242;-52
2023/08/06 02:45:16;;;;;;;10.70;8.00;;;;;;;29.42;66.59;100475.98;107117;1263;25378;-52
2023/08/06 02:47:43;;;;;;;8.80;7.20;;;;;;;29.41;66.63;100476.73;107044;1264;25365;-52
2023/08/06 02:50:10;;;;;;;10.90;7.70;;;;;;;29.40;66.65;100473.10;107076;1263;25545;-52
2023/08/06 02:52:38;;;;;;;9.30;7.80;;;;;;;29.39;66.90;100472.14;106933;1263;25365;-52
2023/08/06 02:55:07;;;;;;;11.80;7.30;;;;;;;29.38;67.18;100469.42;106730;1257;25372;-52
2023/08/06 02:57:34;;;;;;;12.40;8.00;;;;;;;29.35;67.56;100471.13;106787;1263;25512;-52
2023/08/06 03:00:01;;;;;;;8.70;7.40;;;;;;;29.32;67.70;100469.48;106898;1254;25331;-51
2023/08/06 03:02:29;;;;;;;11.70;7.90;;;;;;;29.31;67.93;100465.51;106481;1267;25373;-50
2023/08/06 03:05:17;;;;;;;10.50;7.60;;;;;;;29.29;68.17;100467.16;107202;1256;25372;-52
2023/08/06 03:07:45;;;;;;;12.30;8.40;;;;;;;29.28;68.34;100462.65;106934;1260;25418;-52
2023/08/06 03:10:17;;;;;;;13.50;8.30;;;;;;;29.26;68.56;100465.65;106899;1260;25392;-52
2023/08/06 03:12:44;;;;;;;12.50;7.90;;;;;;;29.24;68.75;100463.41;107026;1256;25394;-52
2023/08/06 03:15:12;;;;;;;9.30;8.30;;;;;;;29.21;68.98;100467.84;107073;1262;22652;-52
2023/08/06 03:17:40;;;;;;;10.50;7.70;;;;;;;29.18;69.15;100471.70;106944;1253;25340;-52
2023/08/06 03:20:08;;;;;;;11.50;8.50;;;;;;;29.18;69.04;100471.54;107128;1257;22533;-51
2023/08/06 03:22:35;;;;;;;12.50;8.60;;;;;;;29.18;69.12;100472.58;107150;1256;24335;-52
2023/08/06 03:25:03;;;;;;;9.30;8.10;;;;;;;29.20;69.25;100471.55;107230;1253;25334;-52
2023/08/06 03:27:30;;;;;;;9.10;8.10;;;;;;;29.21;69.09;100470.12;107235;1249;22546;-52
2023/08/06 03:29:57;;;;;;;11.00;8.50;;;;;;;29.23;69.04;100466.04;106949;1256;25513;-52
2023/08/06 03:32:25;;;;;;;10.40;8.30;;;;;;;29.24;69.15;100463.58;107131;1251;22567;-52
2023/08/06 03:34:53;;;;;;;8.70;7.80;;;;;;;29.26;69.17;100466.19;107191;1266;25356;-52
2023/08/06 03:37:21;;;;;;;9.20;8.20;;;;;;;29.29;69.09;100468.27;107188;1253;22531;-52
2023/08/06 03:39:50;;;;;;;11.50;8.40;;;;;;;29.31;69.14;100468.59;107160;1266;25443;-52
2023/08/06 03:42:17;;;;;;;11.40;8.40;;;;;;;29.33;69.14;100470.65;107136;1260;25375;-51
2023/08/06 03:44:44;;;;;;;9.80;7.90;;;;;;;29.36;69.21;100470.92;107135;1263;25338;-52
2023/08/06 03:47:11;;;;;;;11.30;8.60;;;;;;;29.40;69.08;100470.50;106955;1253;25363;-52
2023/08/06 03:49:39;;;;;;;11.10;7.90;;;;;;;29.45;69.75;100465.24;107085;1254;25399;-52
2023/08/06 03:52:07;;;;;;;11.20;8.10;;;;;;;29.53;70.06;100461.00;107201;1254;22519;-51
2023/08/06 03:54:34;;;;;;;10.30;8.10;;;;;;;29.62;69.74;100462.33;107028;1255;25487;-52
2023/08/06 03:57:01;;;;;;;13.50;8.80;;;;;;;29.70;69.09;100461.70;106715;1269;22647;-52
2023/08/06 03:59:28;;;;;;;9.80;7.80;;;;;;;29.75;68.60;100459.02;106437;1262;25338;-52
2023/08/06 04:01:55;;;;;;;9.10;8.20;;;;;;;29.79;68.42;100458.59;106380;1265;25337;-52
2023/08/06 04:04:23;;;;;;;10.90;8.00;;;;;;;29.82;68.24;100461.55;106545;1264;25457;-51
2023/08/06 04:06:50;;;;;;;10.00;7.60;;;;;;;29.84;68.11;100463.12;106543;1275;25379;-51
2023/08/06 04:09:17;;;;;;;10.30;7.60;;;;;;;29.84;68.02;100467.54;106525;1265;25383;-51
2023/08/06 04:11:44;;;;;;;8.70;7.50;;;;;;;29.86;68.07;100467.84;106317;1265;25373;-52
2023/08/06 04:14:11;;;;;;;11.10;8.40;;;;;;;29.88;68.06;100470.33;106524;1271;25498;-52
2023/08/06 04:16:38;;;;;;;9.50;7.80;;;;;;;29.90;67.76;100473.19;106677;1275;25549;-50
2023/08/06 04:19:05;;;;;;;9.90;8.10;;;;;;;29.90;67.91;100472.30;106577;1259;25484;-50
2023/08/06 04:21:33;;;;;;;10.10;7.80;;;;;;;29.91;67.86;100468.42;106655;1272;24340;-50
2023/08/06 04:24:00;;;;;;;9.00;7.90;;;;;;;29.91;67.90;100464.70;106493;1270;25358;-51
2023/08/06 04:26:28;;;;;;;8.40;7.10;;;;;;;29.91;67.87;100459.80;106230;1274;25498;-51
2023/08/06 04:28:54;;;;;;;9.10;7.70;;;;;;;29.91;67.85;100461.39;106364;1268;25325;-51
2023/08/06 04:31:23;;;;;;;9.50;8.00;;;;;;;29.91;67.86;100456.19;106827;1251;25366;-51
2023/08/06 04:33:50;;;;;;;9.10;8.10;;;;;;;29.93;67.78;100451.16;106889;1263;25357;-50
2023/08/06 04:36:17;;;;;;;9.00;7.50;;;;;;;29.95;67.71;100446.88;106828;1260;25388;-50
2023/08/06 04:38:47;;;;;;;10.30;7.30;;;;;;;29.96;67.65;100440.67;107048;1254;25340;-50
2023/08/06 04:41:14;;;;;;;10.30;7.70;;;;;;;29.98;67.57;100442.29;107087;1254;25350;-50
2023/08/06 04:43:42;;;;;;;15.20;7.60;;;;;;;29.99;67.58;100440.70;107035;1270;25481;-52
2023/08/06 04:46:09;;;;;;;7.70;7.00;;;;;;;30.01;67.58;100437.57;107128;1253;22656;-53
2023/08/06 04:48:36;;;;;;;10.90;7.20;;;;;;;30.04;67.56;100441.59;107152;1262;25418;-52
2023/08/06 04:51:03;;;;;;;10.90;7.70;;;;;;;30.06;67.53;100440.08;107110;1262;25344;-52
2023/08/06 04:53:30;;;;;;;8.10;7.00;;;;;;;30.09;67.31;100440.29;107158;1260;25321;-52
2023/08/06 04:55:57;;;;;;;10.80;7.20;;;;;;;30.11;67.15;100439.52;107100;1263;25484;-52
2023/08/06 04:58:24;;;;;;;8.80;7.60;;;;;;;30.13;67.14;100438.78;107216;1260;25343;-50
2023/08/06 05:00:51;;;;;;;12.50;8.00;;;;;;;30.15;67.06;100438.73;107029;1253;25388;-50
2023/08/06 05:03:18;;;;;;;9.80;7.40;;;;;;;30.15;67.23;100431.80;107086;1257;25335;-53
2023/08/06 05:05:46;;;;;;;13.50;7.70;;;;;;;30.16;67.27;100427.95;107130;1254;22531;-50
2023/08/06 05:08:19;;;;;;;8.60;7.70;;;;;;;30.17;67.32;100431.90;107117;1251;24330;-50
2023/08/06 05:10:46;;;;;;;11.80;7.10;;;;;;;30.19;67.36;100427.35;107195;1256;25418;-51
2023/08/06 05:13:13;;;;;;;9.20;8.30;;;;;;;30.21;67.36;100429.35;107170;1254;25340;-51
2023/08/06 05:15:42;;;;;;;12.30;7.80;;;;;;;30.23;67.38;100427.02;107165;1255;25397;-51
2023/08/06 05:18:09;;;;;;;11.50;7.80;;;;;;;30.24;67.31;100426.10;107121;1266;25368;-52
2023/08/06 05:20:37;;;;;;;10.60;7.70;;;;;;;30.26;67.23;100421.61;107110;1254;25511;-51
2023/08/06 05:23:05;;;;;;;9.10;7.70;;;;;;;30.28;67.42;100421.91;107199;1253;22648;-51
2023/08/06 05:25:32;;;;;;;9.00;8.00;;;;;;;30.31;67.34;100421.42;107116;1260;25341;-51
2023/08/06 05:27:59;;;;;;;9.20;7.90;;;;;;;30.35;67.15;100422.83;107000;1266;25340;-51
2023/08/06 05:30:27;;;;;;;11.60;7.80;;;;;;;30.41;67.16;100423.36;107040;1256;25793;-50
2023/08/06 05:32:55;;;;;;;11.90;7.70;;;;;;;30.47;67.00;100423.91;107152;1263;25332;-51
2023/08/06 05:35:22;;;;;;;10.00;7.50;;;;;;;30.52;66.94;100416.27;107164;1260;22566;-51
2023/08/06 05:37:53;;;;;;;8.50;7.30;;;;;;;30.62;67.11;100414.64;107128;1251;25340;-51
2023/08/06 05:40:20;;;;;;;11.80;6.80;;;;;;;30.79;66.97;100412.52;107087;1256;25452;-52
2023/08/06 05:42:47;;;;;;;7.20;6.50;;;;;;;31.02;66.18;100410.60;106976;1266;25403;-50
2023/08/06 05:45:14;;;;;;;8.90;6.20;;;;;;;31.30;65.30;100411.67;107114;1263;25347;-50
2023/08/06 05:47:41;;;;;;;9.10;6.20;;;;;;;31.61;64.16;100411.77;107089;1263;25417;-50
2023/08/06 05:50:08;;;;;;;9.20;6.40;;;;;;;31.88;62.95;100406.05;107215;1253;24240;-50
2023/08/06 05:52:35;;;;;;;14.50;6.10;;;;;;;32.10;61.93;100401.39;107559;1257;23554;-52
2023/08/06 05:55:03;;;;;;;8.50;6.00;;;;;;;32.25;61.22;100402.58;107704;1253;22521;-53
2023/08/06 05:57:30;;;;;;;12.00;6.30;;;;;;;32.40;60.21;100402.58;107346;1259;25462;-52
2023/08/06 05:59:57;;;;;;;9.60;7.00;;;;;;;32.55;59.72;100401.90;107345;1251;25378;-52
2023/08/06 06:02:24;;;;;;;8.60;6.80;;;;;;;32.73;58.54;100399.73;107398;1257;22636;-52
2023/08/06 06:04:51;;;;;;;7.30;5.90;;;;;;;32.95;58.01;100400.83;107040;1269;26529;-52
2023/08/06 06:07:18;;;;;;;9.60;6.00;;;;;;;33.15;57.35;100400.34;106989;1270;24208;-51
2023/08/06 06:09:45;;;;;;;7.60;6.20;;;;;;;33.32;56.39;100400.33;107183;1269;25369;-52
2023/08/06 06:12:12;;;;;;;8.70;6.20;;;;;;;33.45;55.61;100404.64;107216;1254;23900;-51
2023/08/06 06:14:39;;;;;;;9.20;6.80;;;;;;;33.52;55.75;100404.34;107411;1254;25862;-52
2023/08/06 06:17:06;;;;;;;16.40;5.90;;;;;;;33.53;55.63;100404.77;107159;1253;24196;-51
2023/08/06 06:19:33;;;;;;;9.10;6.10;;;;;;;33.51;54.92;100402.01;107270;1266;23881;-52
2023/08/06 06:22:00;;;;;;;8.50;5.40;;;;;;;33.47;55.23;100403.84;107194;1256;25340;-52
2023/08/06 06:24:27;;;;;;;9.30;6.00;;;;;;;33.40;55.94;100397.77;107207;1251;25407;-52
2023/08/06 06:26:54;;;;;;;9.10;6.10;;;;;;;33.33;56.19;100394.85;107317;1253;22520;-52
2023/08/06 06:29:21;;;;;;;10.70;6.10;;;;;;;33.31;56.22;100393.14;107164;1256;25497;-51
2023/08/06 06:31:48;;;;;;;8.70;5.80;;;;;;;33.26;56.43;100391.34;107218;1251;23362;-53
2023/08/06 06:34:16;;;;;;;6.60;5.10;;;;;;;33.22;56.44;100382.76;107008;1261;25365;-52
2023/08/06 06:36:43;;;;;;;7.50;6.40;;;;;;;33.19;56.63;100383.51;107196;1255;25478;-52
2023/08/06 06:39:10;;;;;;;9.50;5.80;;;;;;;33.18;56.77;100382.09;107215;1253;25369;-52
2023/08/06 06:41:37;;;;;;;7.30;5.60;;;;;;;33.17;56.70;100383.28;107212;1253;25350;-51
2023/08/06 06:44:09;;;;;;;9.70;5.90;;;;;;;33.17;56.60;100379.55;107011;1254;25369;-51
2023/08/06 06:46:36;;;;;;;11.10;5.80;;;;;;;33.16;56.59;100377.48;106948;1253;25331;-51
2023/08/06 06:49:03;;;;;;;10.00;6.30;;;;;;;33.16;56.69;100377.70;106953;1263;25332;-51
2023/08/06 06:51:31;;;;;;;8.20;5.70;;;;;;;33.13;56.28;100374.69;106921;1261;24204;-51
2023/08/06 06:53:58;;;;;;;9.40;5.50;;;;;;;33.13;56.63;100373.10;107219;1251;24063;-51
2023/08/06 06:56:25;;;;;;;8.70;6.10;;;;;;;33.12;56.60;100372.27;107095;1263;25308;-52
2023/08/06 06:58:52;;;;;;;9.50;6.10;;;;;;;33.10;57.23;100372.16;107132;1267;24276;-52
2023/08/06 07:01:19;;;;;;;9.00;6.00;;;;;;;33.06;57.39;100369.61;107178;1269;25341;-51
2023/08/06 07:03:46;;;;;;;7.50;5.70;;;;;;;33.04;57.54;100364.31;107072;1263;25417;-51
2023/08/06 07:06:15;;;;;;;7.70;5.60;;;;;;;33.03;57.72;100365.50;107076;1254;25421;-52
2023/08/06 07:08:42;;;;;;;7.90;5.80;;;;;;;33.03;57.63;100367.30;107101;1253;25463;-52
2023/08/06 07:11:09;;;;;;;8.60;5.90;;;;;;;32.91;57.78;100368.85;106826;1269;22535;-51
2023/08/06 07:13:36;;;;;;;12.10;6.60;;;;;;;32.86;58.28;100370.06;107031;1254;25340;-52
2023/08/06 07:16:03;;;;;;;9.70;6.10;;;;;;;32.93;58.53;100367.38;107190;1253;25344;-52
2023/08/06 07:18:30;;;;;;;9.50;6.60;;;;;;;33.21;57.80;100368.44;107047;1260;23235;-51
2023/08/06 07:20:57;;;;;;;6.00;5.40;;;;;;;33.48;57.21;100368.29;107166;1250;22523;-51
2023/08/06 07:23:25;;;;;;;7.60;5.70;;;;;;;33.70;56.52;100369.92;106877;1263;25340;-51
2023/08/06 07:25:53;;;;;;;7.30;6.00;;;;;;;33.89;55.92;100363.59;106975;1254;26508;-52
2023/08/06 07:28:20;;;;;;;8.50;6.80;;;;;;;34.04;55.68;100361.10;106933;1253;24375;-52
2023/08/06 07:30:47;;;;;;;11.10;6.50;;;;;;;34.20;55.38;100362.88;106961;1256;25366;-51
2023/08/06 07:33:14;;;;;;;10.40;7.50;;;;;;;34.29;54.84;100359.34;106926;1257;24194;-52
2023/08/06 07:35:43;;;;;;;9.30;6.50;;;;;;;34.36;54.27;100362.67;107268;1250;25328;-52
2023/08/06 07:38:10;;;;;;;10.20;6.80;;;;;;;34.40;53.70;100364.34;106962;1253;25343;-51
2023/08/06 07:40:37;;;;;;;8.50;7.50;;;;;;;34.43;53.89;100364.70;107021;1257;25254;-52
2023/08/06 07:43:04;;;;;;;11.60;7.30;;;;;;;34.45;53.47;100362.33;107082;1255;22608;-52
2023/08/06 07:45:35;;;;;;;11.20;7.70;;;;;;;34.41;53.42;100363.72;107302;1254;25511;-52
2023/08/06 07:48:03;;;;;;;;;;;;;;;34.39;53.72;100367.94;107101;1263;22498;-52
2023/08/06 07:50:31;;;;;;;10.30;8.10;;;;;;;34.30;53.80;100362.06;106843;1266;25372;-51
2023/08/06 07:52:58;;;;;;;9.10;7.60;;;;;;;34.18;53.97;100357.02;107315;1256;23267;-51
2023/08/06 07:55:25;;;;;;;12.60;7.30;;;;;;;34.04;54.28;100358.75;107762;1251;22592;-51
2023/08/06 07:57:52;;;;;;;10.30;7.20;;;;;;;33.91;54.88;100354.65;107600;1257;22984;-52
2023/08/06 08:00:19;;;;;;;11.40;7.30;;;;;;;33.82;54.95;100356.48;107264;1253;22551;-52
2023/08/06 08:02:46;;;;;;;10.60;7.30;;;;;;;33.77;55.28;100354.47;107262;1257;25397;-52
2023/08/06 08:05:14;;;;;;;8.20;7.10;;;;;;;33.71;55.50;100351.75;107122;1251;25297;-52
2023/08/06 08:07:41;;;;;;;8.50;7.20;;;;;;;33.64;55.59;100352.58;107875;1256;23284;-52
2023/08/06 08:10:08;;;;;;;10.20;7.40;;;;;;;33.59;55.97;100349.80;107276;1265;23191;-52
2023/08/06 08:12:35;;;;;;;10.80;7.50;;;;;;;33.59;55.91;100348.05;107318;1250;25411;-52
2023/08/06 08:15:03;;;;;;;9.10;7.10;;;;;;;33.60;55.90;100349.14;107160;1263;25392;-51
2023/08/06 08:17:30;;;;;;;9.20;7.30;;;;;;;33.62;55.86;100344.60;107203;1265;24337;-52
2023/08/06 08:19:57;;;;;;;10.00;6.70;;;;;;;33.65;55.89;100344.42;107051;1254;25344;-52
2023/08/06 08:22:24;;;;;;;7.80;6.80;;;;;;;33.69;55.82;100343.59;107308;1257;25478;-51
2023/08/06 08:24:51;;;;;;;11.20;7.20;;;;;;;33.72;55.91;100344.33;107434;1263;25490;-51
2023/08/06 08:27:18;;;;;;;14.10;8.10;;;;;;;33.75;55.93;100342.65;107201;1263;25340;-51
2023/08/06 08:29:45;;;;;;;12.20;6.50;;;;;;;33.79;55.74;100345.56;107772;1266;25372;-51
2023/08/06 08:32:13;;;;;;;8.10;7.20;;;;;;;33.83;55.56;100346.52;106903;1269;23173;-51
2023/08/06 08:34:39;;;;;;;9.00;7.10;;;;;;;33.85;54.93;100343.35;106948;1256;25494;-51
2023/08/06 08:37:07;;;;;;;10.00;7.00;;;;;;;33.87;54.77;100338.63;107188;1254;24351;-51
2023/08/06 08:39:34;;;;;;;7.20;6.50;;;;;;;33.88;54.65;100338.26;106845;1259;25287;-52
2023/08/06 08:42:02;;;;;;;10.90;6.90;;;;;;;33.89;54.84;100339.97;107056;1266;23361;-51
2023/08/06 08:44:31;;;;;;;10.00;6.50;;;;;;;33.90;54.30;100339.98;106943;1266;25418;-50
2023/08/06 08:46:58;;;;;;;14.10;7.40;;;;;;;33.92;54.38;100341.08;107351;1266;22650;-51
2023/08/06 08:49:26;;;;;;;9.60;6.70;;;;;;;33.92;53.67;100341.54;107714;1262;25424;-51
2023/08/06 08:51:53;;;;;;;9.20;6.60;;;;;;;33.93;54.25;100340.50;107141;1263;23310;-52
2023/08/06 08:54:23;;;;;;;9.70;7.40;;;;;;;33.95;53.80;100334.16;106736;1258;25328;-52
2023/08/06 08:56:49;;;;;;;10.40;7.00;;;;;;;33.95;53.73;100328.20;107073;1257;23026;-51
2023/08/06 08:59:16;;;;;;;9.40;6.90;;;;;;;33.96;54.43;100328.92;107408;1260;22892;-52
2023/08/06 09:01:44;;;;;;;10.60;7.20;;;;;;;33.97;54.47;100324.48;106865;1269;22525;-51
2023/08/06 09:04:11;;;;;;;14.00;7.60;;;;;;;33.98;54.46;100325.98;107568;1257;25366;-51
2023/08/06 09:06:38;;;;;;;10.50;7.20;;;;;;;34.00;54.41;100321.33;107298;1263;22523;-51
2023/08/06 09:09:10;;;;;;;9.20;7.30;;;;;;;34.01;54.61;100319.63;107128;1256;25287;-51
2023/08/06 09:11:40;;;;;;;13.10;7.10;;;;;;;34.00;54.56;100316.97;107520;1260;22524;-51
2023/08/06 09:14:08;;;;;;;9.10;7.20;;;;;;;34.01;54.61;100313.61;107811;1253;22524;-52
2023/08/06 09:16:35;;;;;;;9.60;7.00;;;;;;;34.02;54.64;100306.23;108195;1256;22646;-52
2023/08/06 09:19:13;;;;;;;8.50;6.90;;;;;;;34.04;54.67;100300.81;107958;1251;25344;-52
2023/08/06 09:21:40;;;;;;;11.00;7.50;;;;;;;34.06;55.01;100296.00;107544;1255;25487;-52
2023/08/06 09:24:11;;;;;;;9.70;7.20;;;;;;;34.07;55.00;100292.98;107538;1253;22513;-52
2023/08/06 09:26:43;;;;;;;10.40;6.70;;;;;;;34.08;54.86;100290.24;107522;1253;22531;-52
2023/08/06 09:29:17;;;;;;;8.70;7.10;;;;;;;34.07;54.84;100288.32;107664;1255;22618;-52
2023/08/06 09:31:52;;;;;;;9.00;7.90;;;;;;;34.07;55.19;100282.23;107476;1257;24358;-51
2023/08/06 09:34:24;;;;;;;8.00;7.20;;;;;;;34.09;54.95;100278.79;107666;1264;25571;-52
2023/08/06 09:36:53;;;;;;;8.80;7.50;;;;;;;34.05;54.23;100277.14;107327;1263;25360;-52
2023/08/06 09:39:28;;;;;;;8.20;7.30;;;;;;;33.98;54.13;100272.00;107291;1266;22527;-51
2023/08/06 09:42:01;;;;;;;10.20;7.50;;;;;;;33.91;54.07;100266.31;107598;1250;25420;-51
2023/08/06 09:44:31;;;;;;;11.00;8.20;;;;;;;33.85;54.04;100262.61;107044;1256;25363;-51
2023/08/06 09:46:59;;;;;;;8.60;7.70;;;;;;;33.81;54.11;100262.58;107649;1253;25335;-51
2023/08/06 09:49:42;;;;;;;9.80;7.40;;;;;;;33.78;54.05;100265.87;107620;1251;22545;-50
2023/08/06 09:52:12;;;;;;;11.20;7.50;;;;;;;33.76;54.15;100266.94;107349;1251;22553;-51
2023/08/06 09:54:39;;;;;;;8.10;7.40;;;;;;;33.74;54.67;100262.89;107530;1257;25245;-51
2023/08/06 09:57:07;;;;;;;10.60;8.00;;;;;;;33.73;54.81;100263.55;107109;1263;25372;-51
2023/08/06 09:59:34;;;;;;;10.00;8.30;;;;;;;33.71;54.89;100258.80;107385;1256;22523;-51
2023/08/06 10:02:01;;;;;;;11.30;8.00;;;;;;;33.70;54.71;100252.84;107338;1263;25395;-50
2023/08/06 10:04:28;;;;;;;8.20;7.40;;;;;;;33.67;54.48;100251.91;107236;1253;25347;-51
2023/08/06 10:07:07;;;;;;;9.60;8.20;;;;;;;33.62;54.59;100246.59;107169;1267;25421;-51
2023/08/06 10:09:34;;;;;;;8.30;7.60;;;;;;;33.58;54.91;100241.29;107495;1251;25363;-51
2023/08/06 10:12:01;;;;;;;11.10;8.30;;;;;;;33.58;54.71;100237.17;107817;1251;22550;-51
2023/08/06 10:14:30;;;;;;;8.90;8.10;;;;;;;33.60;54.50;100232.45;107235;1257;24259;-51
2023/08/06 10:16:57;;;;;;;9.10;8.00;;;;;;;33.61;54.10;100229.36;108171;1256;23565;-52
2023/08/06 10:19:25;;;;;;;11.30;8.40;;;;;;;33.66;53.90;100229.77;107710;1255;25448;-51
2023/08/06 10:22:12;;;;;;;10.40;8.50;;;;;;;33.66;53.86;100229.08;107268;1259;25369;-51
2023/08/06 10:24:46;;;;;;;11.70;9.00;;;;;;;33.68;53.85;100228.83;107478;1260;25494;-51
2023/08/06 10:27:13;;;;;;;12.00;8.00;;;;;;;33.69;53.85;100226.85;107598;1269;25528;-52
2023/08/06 10:29:40;;;;;;;12.70;8.60;;;;;;;33.70;53.87;100227.98;107386;1260;24240;-52
2023/08/06 10:32:08;;;;;;;8.70;7.80;;;;;;;33.69;53.81;100224.31;107656;1255;22530;-52
2023/08/06 10:34:54;;;;;;;9.80;7.70;;;;;;;33.67;54.00;100222.43;107276;1257;24027;-51
2023/08/06 10:37:22;;;;;;;9.90;8.30;;;;;;;33.64;54.11;100220.95;107954;1267;25494;-51
2023/08/06 10:39:52;;;;;;;11.90;8.80;;;;;;;33.61;54.04;100218.27;107636;1263;24469;-51
2023/08/06 10:42:20;;;;;;;11.60;8.00;;;;;;;33.55;54.16;100212.34;107244;1267;23216;-51
2023/08/06 10:45:15;;;;;;;14.80;8.60;;;;;;;33.50;54.58;100213.02;107177;1253;25296;-52
2023/08/06 10:47:43;;;;;;;8.60;7.70;;;;;;;33.49;54.81;100207.95;107906;1263;25398;-52
2023/08/06 10:50:17;;;;;;;9.00;7.90;;;;;;;33.50;55.11;100207.85;107301;1257;25369;-51
2023/08/06 10:52:46;;;;;;;13.20;8.60;;;;;;;33.51;55.24;100207.64;107431;1251;25417;-52
2023/08/06 10:55:13;;;;;;;9.50;8.00;;;;;;;33.55;55.16;100205.93;107242;1263;22711;-52
2023/08/06 10:57:40;;;;;;;10.60;8.40;;;;;;;33.61;54.95;100202.11;107196;1257;25293;-52
2023/08/06 11:00:09;;;;;;;9.20;8.30;;;;;;;33.70;54.64;100203.66;107251;1268;25421;-52
2023/08/06 11:02:48;;;;;;;10.40;8.70;;;;;;;33.80;54.45;100198.46;107255;1257;22707;-52
2023/08/06 11:05:15;;;;;;;15.20;9.30;;;;;;;33.87;54.37;100195.54;107386;1263;22417;-52
2023/08/06 11:07:42;;;;;;;12.80;9.00;;;;;;;33.91;54.28;100190.33;107776;1257;24185;-51
2023/08/06 11:10:11;;;;;;;11.50;9.10;;;;;;;33.96;54.21;100189.54;107633;1260;22527;-50
2023/08/06 11:12:38;;;;;;;10.20;8.40;;;;;;;33.99;54.18;100186.91;107434;1250;22405;-51
2023/08/06 11:15:07;;;;;;;9.90;8.20;;;;;;;34.04;54.07;100183.96;107811;1258;25455;-51
2023/08/06 11:17:34;;;;;;;10.00;8.80;;;;;;;34.10;53.76;100181.42;107218;1253;22526;-51
2023/08/06 11:20:05;;;;;;;10.10;8.50;;;;;;;34.13;53.55;100181.77;107153;1257;25369;-51